Dorothy Ann — WDE8761 — position and weather

sailwx.info

Track history (hours):
 
Tides and Currents Weather Stations Pressure Air Temp Water Temp Dewpoint Dewpoint Depression Visibility Wind Speed Wind Dir Waves Ship Positions

Dorothy Ann

Owner: THE INTERLAKE STEAMSHIP COMPANY, Middleburg Heights, OH. More information available from US FCC via Universal Licensing System and Coast Guard Vessel Documentation Center.

Last reported at 2016-Jul-28 15:00 UTC. Time now 2016-Jul-28 16:29 UTC.
Position N 41°42' W 083°30'.

Length 215 m; draft 5.9 m.

Type: Cargo ship. MMSI: 367409260.

Wind from 040 at 8 knots

Barometer 1013.4 mb
Air temperature 25.2 ° C
Water temperature 31.0 ° C

Date/timePositionNaut miles runAvg speedWind from/ knotsBaromVisibWave heightAir tempDewpointWater temp
2016-Jul-28 15:00N 41°42' W 083°30'0 0.0 040 / 81013.4 25.2 31.0
2016-Jul-28 14:00N 41°42' W 083°30'1110.8 050 / 101013.7 25.0 30.9
2016-Jul-28 13:00N 41°48' W 083°18'1110.8 040 / 101014.0 24.4 29.7
2016-Jul-28 12:00N 41°54' W 083°06'6 6.0 040 / 101013.7 23.9 29.6
2016-Jul-28 11:00N 42°00' W 083°06'1212.0 050 / 61013.7 22.1 28.8
2016-Jul-28 10:00N 42°12' W 083°06'6 6.0 030 / 61013.5 22.3 28.9
2016-Jul-28 09:00N 42°18' W 083°06'0 0.0 060 / 41013.5 22.6 32.1
2016-Jul-28 08:00N 42°18' W 083°06'0 0.0 040 / 51013.1 23.0 32.6
2016-Jul-28 07:00N 42°18' W 083°06'0 0.0 340 / 51013.5 23.9 32.3
2016-Jul-28 06:00N 42°18' W 083°06'6 6.0 340 / 41013.8 25.5 32.3
2016-Jul-28 05:00N 42°12' W 083°06'6 6.0 060 / 41014.2 24.5 29.0
2016-Jul-28 04:00N 42°06' W 083°06'6 6.0 1014.2 25.6 28.6
2016-Jul-28 03:00N 42°00' W 083°06'7 7.5 020 / 91014.7 26.8 29.2
2016-Jul-28 02:00N 41°54' W 083°00'9 8.9 190 / 81013.7 27.3 29.3
2016-Jul-28 01:00N 41°54' W 082°48'9 8.9 170 / 71013.4 27.5 29.8
2016-Jul-28 00:00N 41°54' W 082°36'2210.8 180 / 81014.0 27.6 29.9
2016-Jul-27 22:00N 41°42' W 082°12'1110.8 340 / 21014.7 27.6 29.0
2016-Jul-27 21:00N 41°36' W 082°00'9 9.0 350 / 91015.1 27.8 29.1
2016-Jul-27 20:00N 41°36' W 081°48'7 7.5 330 / 111015.4 27.6 29.4
2016-Jul-27 19:00N 41°30' W 081°42'0 0.0 330 / 81016.1 26.2 30.4
2016-Jul-27 18:00N 41°30' W 081°42'0 0.0 010 / 71016.4 27.7 29.6
2016-Jul-27 17:00N 41°30' W 081°42'0 0.0 330 / 61016.4 28.5 31.0
2016-Jul-27 16:00N 41°30' W 081°42'0 0.0 340 / 81017.1 27.2 30.8
2016-Jul-27 15:00N 41°30' W 081°42'0 0.0 320 / 71017.1 26.5 30.9
2016-Jul-27 14:00N 41°30' W 081°42'0 0.0 1017.4 28.2 30.9
2016-Jul-27 13:00N 41°30' W 081°42'0 0.0 140 / 31017.4 26.1 30.8
2016-Jul-27 12:00N 41°30' W 081°42'0 0.0 160 / 41017.4 22.4 30.8
2016-Jul-27 11:00N 41°30' W 081°42'0 0.0 160 / 61017.1 20.5 30.8
2016-Jul-27 10:00N 41°30' W 081°42'0 0.0 160 / 51016.4 20.0 30.7
2016-Jul-27 09:00N 41°30' W 081°42'0 0.0 180 / 51016.4 19.9 30.8
2016-Jul-27 08:00N 41°30' W 081°42'0 0.0 160 / 71016.4 20.8 30.8
2016-Jul-27 07:00N 41°30' W 081°42'0 0.0 180 / 41016.4 21.0 30.8
2016-Jul-27 06:00N 41°30' W 081°42'0 0.0 180 / 31016.4 21.8 30.7
2016-Jul-27 05:00N 41°30' W 081°42'0 0.0 160 / 21016.8 22.7 30.8
2016-Jul-27 04:00N 41°30' W 081°42'0 0.0 120 / 21016.4 23.7 30.6
2016-Jul-27 03:00N 41°30' W 081°42'0 0.0 100 / 11016.8 24.7 30.7
2016-Jul-27 02:00N 41°30' W 081°42'0 0.0 040 / 11016.8 25.2 30.6
2016-Jul-27 01:00N 41°30' W 081°42'0 0.0 010 / 31016.8 28.2 30.7
2016-Jul-27 00:00N 41°30' W 081°42'0 0.0 030 / 71016.8 26.7 30.3
2016-Jul-26 23:00N 41°30' W 081°42'0 0.0 040 / 61016.8 27.0 30.0
2016-Jul-26 22:00N 41°30' W 081°42'0 0.0 020 / 91016.8 26.4 29.8
2016-Jul-26 21:00N 41°30' W 081°42'0 0.0 360 / 61017.1 26.5 30.3
2016-Jul-26 20:00N 41°30' W 081°42'0 0.0 350 / 61017.1 25.8 29.6
2016-Jul-26 19:00N 41°30' W 081°42'0 0.0 310 / 61018.1 25.2 29.7
2016-Jul-26 18:00N 41°30' W 081°42'0 0.0 330 / 71018.5 24.8 30.1
2016-Jul-26 17:00N 41°30' W 081°42'0 0.0 020 / 81018.8 23.3 29.7
2016-Jul-26 16:00N 41°30' W 081°42'0 0.0 030 / 81018.8 23.3 29.5
2016-Jul-26 15:00N 41°30' W 081°42'0 0.0 040 / 71018.5 23.7 29.5
2016-Jul-26 14:00N 41°30' W 081°42'0 0.0 050 / 91018.5 23.4 29.5
2016-Jul-26 13:00N 41°30' W 081°42'0 0.0 040 / 121018.5 23.5 29.5
2016-Jul-26 12:00N 41°30' W 081°42'0 0.0 050 / 71018.1 25.0 29.6
2016-Jul-26 11:00N 41°30' W 081°42'0 0.0 080 / 41018.1 24.7 29.3
2016-Jul-26 10:00N 41°30' W 081°42'0 0.0 040 / 81017.1 23.8 28.9
2016-Jul-26 09:00N 41°30' W 081°42'0 0.0 010 / 91016.1 23.9 29.1
2016-Jul-26 08:00N 41°30' W 081°42'0 0.0 340 / 31016.1 25.5 29.0
2016-Jul-26 07:00N 41°30' W 081°42'0 0.0 340 / 31015.4 28.1 29.0
2016-Jul-26 06:00N 41°30' W 081°42'0 0.0 300 / 51015.4 26.3 29.4
2016-Jul-26 05:00N 41°30' W 081°42'0 0.0 270 / 61015.4 27.1 29.4
2016-Jul-26 04:00N 41°30' W 081°42'0 0.0 280 / 61015.1 30.4 29.3
2016-Jul-26 03:00N 41°30' W 081°42'0 0.0 300 / 61014.7 28.8 29.1
2016-Jul-26 02:00N 41°30' W 081°42'0 0.0 290 / 51014.7 28.6 29.2
2016-Jul-26 01:00N 41°30' W 081°42'0 0.0 250 / 41014.4 29.0 29.4
2016-Jul-26 00:00N 41°30' W 081°42'0 0.0 240 / 51013.7 29.6 29.6
2016-Jul-25 23:00N 41°30' W 081°42'0 0.0 340 / 31013.7 29.9 29.6
2016-Jul-25 22:00N 41°30' W 081°42'0 0.0 310 / 61013.4 29.3 31.0
2016-Jul-25 21:00N 41°30' W 081°42'0 0.0 290 / 171013.7 26.3 29.7
2016-Jul-25 20:00N 41°30' W 081°42'0 0.0 310 / 141013.7 27.2 29.9
2016-Jul-25 19:00N 41°30' W 081°42'0 0.0 300 / 111014.4 27.1 29.7
2016-Jul-25 18:00N 41°30' W 081°42'0 0.0 300 / 171014.7 26.4 29.4
2016-Jul-25 17:00N 41°30' W 081°42'0 0.0 290 / 91015.1 27.1 29.6
2016-Jul-25 16:00N 41°30' W 081°42'0 0.0 290 / 131015.1 26.3 29.5
2016-Jul-25 15:00N 41°30' W 081°42'0 0.0 280 / 211014.7 26.4 29.4
2016-Jul-25 14:00N 41°30' W 081°42'0 0.0 250 / 81014.0 28.4 31.7
2016-Jul-25 13:00N 41°30' W 081°42'0 0.0 270 / 61014.4 27.7 28.8
2016-Jul-25 12:00N 41°30' W 081°42'0 0.0 250 / 91014.0 28.0 28.2
2016-Jul-25 11:00N 41°30' W 081°42'0 0.0 230 / 71013.4 27.5 28.1
2016-Jul-25 10:00N 41°30' W 081°42'0 0.0 240 / 111013.7 28.2 28.3
2016-Jul-25 09:00N 41°30' W 081°42'0 0.0 240 / 141013.7 27.5 28.5
2016-Jul-25 08:00N 41°30' W 081°42'0 0.0 220 / 101013.7 27.7 29.3
2016-Jul-25 07:00N 41°30' W 081°42'69 6.9 180 / 51013.7 26.8 32.2
2016-Jul-24 21:00N 42°00' W 083°06'1212.0 200 / 141013.7 24.9 28.4
2016-Jul-24 20:00N 42°12' W 083°06'7 7.5 200 / 71014.2 25.0 28.1
2016-Jul-24 19:00N 42°18' W 083°00'1110.7 260 / 141014.5 24.7 27.8
2016-Jul-24 18:00N 42°24' W 082°48'7 7.5 260 / 151014.5 25.7 27.8
2016-Jul-24 17:00N 42°30' W 082°42'1110.7 170 / 71014.5 24.4 25.5
2016-Jul-24 16:00N 42°36' W 082°30'1212.0 130 / 81015.0 21.6 25.7
2016-Jul-24 15:00N 42°48' W 082°30'1312.8 170 / 111015.0 25.2 25.5
2016-Jul-24 14:00N 43°00' W 082°24'6 6.0 140 / 91015.4 24.4 25.3
2016-Jul-24 13:00N 43°06' W 082°24'1212.0 170 / 121015.4 22.5 25.9
2016-Jul-24 12:00N 43°18' W 082°24'6 6.0 150 / 151014.3 22.5 25.9
2016-Jul-24 11:00N 43°24' W 082°24'1312.8 180 / 141015.0 22.9 25.8
2016-Jul-24 10:00N 43°36' W 082°30'6 6.0 160 / 141015.0 23.1 25.2
2016-Jul-24 09:00N 43°42' W 082°30'1212.0 170 / 131015.4 23.0 25.1
2016-Jul-24 08:00N 43°54' W 082°30'7 7.4 170 / 121015.4 22.5 25.3
2016-Jul-24 07:00N 44°00' W 082°36'28 9.4 160 / 121015.7 22.7 25.2
2016-Jul-24 04:00N 44°18' W 083°06'7 7.4 140 / 131015.4 22.7 24.3
2016-Jul-24 03:00N 44°24' W 083°12'6 6.0 170 / 111016.0 22.3 24.3
2016-Jul-24 02:00N 44°30' W 083°12'1212.0 110 / 91015.4 22.9 23.1
2016-Jul-24 01:00N 44°42' W 083°12'7 7.4 230 / 61015.7 22.9 23.6
2016-Jul-24 00:00N 44°48' W 083°06'1212.0 210 / 141015.7 23.9 23.6
2016-Jul-23 23:00N 45°00' W 083°06'6 6.0 130 / 81015.0 21.8 23.8
2016-Jul-23 22:00N 45°06' W 083°06'1010.4 080 / 81015.4 23.6 23.7
2016-Jul-23 21:00N 45°12' W 083°18'1312.7 030 / 121015.7 25.0 23.4
2016-Jul-23 20:00N 45°24' W 083°24'8 8.4 020 / 71016.0 22.4 23.4
2016-Jul-23 19:00N 45°24' W 083°36'8 8.4 340 / 61016.7 22.7 23.7
2016-Jul-23 18:00N 45°24' W 083°48'0 0.0 350 / 41016.4 23.3 23.7
2016-Jul-23 17:00N 45°24' W 083°48'0 0.0 360 / 41016.0 22.9 23.7
2016-Jul-23 16:00N 45°24' W 083°48'0 0.0 330 / 81016.7 22.9 23.5
2016-Jul-23 15:00N 45°24' W 083°48'0 0.0 330 / 91016.4 21.8 23.6
2016-Jul-23 14:00N 45°24' W 083°48'0 0.0 330 / 111015.7 22.4 23.5
2016-Jul-23 13:00N 45°24' W 083°48'0 0.0 320 / 101015.7 23.5 23.3
2016-Jul-23 12:00N 45°24' W 083°48'6 6.0 300 / 81015.4 23.2 23.2
2016-Jul-23 11:00N 45°30' W 083°48'7 7.3 270 / 121014.7 20.9 23.2
2016-Jul-23 10:00N 45°36' W 083°54'7 7.3 260 / 141013.7 20.0 22.5
2016-Jul-23 09:00N 45°42' W 084°00'1514.6 280 / 131014.0 19.8 22.0
2016-Jul-23 08:00N 45°54' W 084°12'3 7.1 290 / 141014.3 19.3 20.2
2016-Jul-23 07:33N 45°57' W 084°14'4 7.7
2016-Jul-23 07:00N 46°00' W 084°18'0 0.0 310 / 61014.0 19.3 15.2
2016-Jul-23 06:00N 46°00' W 084°18'0 0.0 310 / 61013.7 19.8 15.7
2016-Jul-23 05:00N 46°00' W 084°18'1 1.7 280 / 41013.7 20.1 15.7
2016-Jul-23 04:07N 45°59' W 084°17'112.8
2016-Jul-23 04:00N 46°00' W 084°18'1 3.4 300 / 41013.3 20.7 15.5
2016-Jul-23 03:33N 45°59' W 084°17'1 2.6
2016-Jul-23 03:00N 46°00' W 084°18'1 3.4 270 / 71013.7 21.5 16.2
2016-Jul-23 02:33N 45°59' W 084°17'1 2.7
2016-Jul-23 02:00N 46°00' W 084°18'1 3.4 280 / 51013.7 22.2 16.2
2016-Jul-23 01:33N 45°59' W 084°17'1 2.6
2016-Jul-23 01:00N 46°00' W 084°18'0 0.0 280 / 101013.3 24.3 16.6
2016-Jul-23 00:00N 46°00' W 084°18'0 0.0 330 / 121013.0 25.4 16.7
2016-Jul-22 23:00N 46°00' W 084°18'0 0.0 260 / 131012.3 26.4 16.9
2016-Jul-22 22:00N 46°00' W 084°18'0 0.0 280 / 151012.3 27.9 16.3
2016-Jul-22 21:00N 46°00' W 084°18'7 7.3 260 / 161012.3 27.7 17.7
2016-Jul-22 20:00N 45°54' W 084°12'2110.3 260 / 241012.3 23.6 21.1
2016-Jul-22 18:00N 45°42' W 083°48'7 7.3 260 / 151013.3 24.7 22.5
2016-Jul-22 17:00N 45°36' W 083°42'1010.3 310 / 141013.7 22.5 22.7
2016-Jul-22 16:00N 45°30' W 083°30'7 7.3 310 / 161013.7 22.4 22.6
2016-Jul-22 15:00N 45°24' W 083°24'1514.7 300 / 171012.7 22.5 22.6
2016-Jul-22 14:00N 45°12' W 083°12'7 7.3 300 / 201012.3 22.7 22.8
2016-Jul-22 13:00N 45°06' W 083°06'6 6.0 300 / 161012.3 22.3 22.7
2016-Jul-22 12:00N 45°00' W 083°06'2010.0 280 / 151012.0 21.2 22.6
2016-Jul-22 10:00N 44°42' W 082°54'1312.7 260 / 131011.6 21.6 22.4
2016-Jul-22 09:00N 44°30' W 082°48'6 6.0 250 / 121011.6 20.6 22.6
2016-Jul-22 08:00N 44°24' W 082°48'1312.7 250 / 201011.6 21.5 22.9
2016-Jul-22 07:00N 44°12' W 082°42'7 7.4 250 / 201011.6 22.4 23.0
2016-Jul-22 06:00N 44°06' W 082°36'1212.0 270 / 151012.3 23.2 24.5
2016-Jul-22 05:00N 43°54' W 082°36'7 7.4 260 / 161012.3 23.6 24.1
2016-Jul-22 04:00N 43°48' W 082°30'1212.0 260 / 91013.0 23.6 23.7
2016-Jul-22 03:00N 43°36' W 082°30'1212.0 260 / 91013.3 23.6 24.2
2016-Jul-22 02:00N 43°24' W 082°30'7 7.4 230 / 121013.3 24.7 24.2
2016-Jul-22 01:00N 43°18' W 082°24'1212.0 240 / 141014.3 25.7 24.7
2016-Jul-22 00:00N 43°06' W 082°24'6 6.0 250 / 171015.0 27.1 25.2
2016-Jul-21 23:00N 43°00' W 082°24'7 7.4 230 / 141014.0 28.9 25.0
2016-Jul-21 22:00N 42°54' W 082°30'6 6.0 170 / 91014.7 29.1 24.9
2016-Jul-21 21:00N 42°48' W 082°30'1212.0 200 / 121015.7 33.2 24.8
2016-Jul-21 20:00N 42°36' W 082°30'7 7.5 220 / 101017.1 30.3 25.1
2016-Jul-21 19:00N 42°30' W 082°36'9 8.8 210 / 131017.5 28.5 25.2
2016-Jul-21 18:00N 42°30' W 082°48'7 7.5 230 / 171018.6 29.0 26.7
2016-Jul-21 17:00N 42°24' W 082°54'1110.7 230 / 171018.9 31.8 26.9
2016-Jul-21 16:00N 42°18' W 083°06'0 0.0 230 / 161019.6 30.4 27.0
2016-Jul-21 15:00N 42°18' W 083°06'0 0.0 250 / 101019.6 28.9 27.5
2016-Jul-21 14:00N 42°18' W 083°06'0 0.0 250 / 111020.3 27.2 27.6
2016-Jul-21 13:00N 42°18' W 083°06'0 0.0 220 / 41020.6 25.4 30.5
2016-Jul-21 12:00N 42°18' W 083°06'0 0.0 230 / 71020.6 23.8 31.0
2016-Jul-21 11:00N 42°18' W 083°06'0 0.0 210 / 41020.9 23.2 30.4
2016-Jul-21 10:00N 42°18' W 083°06'0 0.0 240 / 21021.3 23.9 30.5
2016-Jul-21 09:00N 42°18' W 083°06'4 4.4 180 / 51020.9 23.3 29.1
2016-Jul-21 08:00N 42°18' W 083°00'1110.7 210 / 71020.9 22.8 27.0
2016-Jul-21 07:00N 42°24' W 082°48'7 7.5 180 / 121021.3 23.1 26.6
2016-Jul-21 06:00N 42°30' W 082°42'1110.7 170 / 151020.9 23.0 24.9
2016-Jul-21 05:00N 42°36' W 082°30'6 6.0 190 / 71021.8 21.8 24.8
2016-Jul-21 04:00N 42°42' W 082°30'1212.0 200 / 71022.1 20.5 25.0
2016-Jul-21 03:00N 42°54' W 082°30'1312.8 190 / 91022.1 21.9 25.1
2016-Jul-21 02:00N 43°06' W 082°24'6 6.0 190 / 141021.8 24.2 24.8
2016-Jul-21 01:00N 43°12' W 082°24'6 6.0 220 / 111021.5 25.0 24.6
2016-Jul-21 00:00N 43°18' W 082°24'1312.8 160 / 151021.5 24.9 24.5
2016-Jul-20 23:00N 43°30' W 082°30'6 6.0 170 / 151021.5 23.7 24.4
2016-Jul-20 22:00N 43°36' W 082°30'1212.0 170 / 171021.8 23.0 24.1
2016-Jul-20 21:00N 43°48' W 082°30'6 6.0 160 / 151022.1 22.0 24.2
2016-Jul-20 20:00N 43°54' W 082°30'7 7.4 150 / 131022.8 21.7 23.9
2016-Jul-20 19:00N 44°00' W 082°36'1110.5 150 / 151022.8 21.0 24.0
2016-Jul-20 18:00N 44°06' W 082°48'7 7.4 150 / 91023.5 21.3 23.4
2016-Jul-20 17:00N 44°12' W 082°54'1010.5 220 / 111023.8 20.7 23.4
2016-Jul-20 16:00N 44°18' W 083°06'7 7.4 220 / 131023.8 20.2 22.6
2016-Jul-20 15:00N 44°24' W 083°12'6 6.0 220 / 161023.8 22.6 22.3
2016-Jul-20 14:00N 44°30' W 083°12'1212.0 200 / 161023.8 19.5 22.2
2016-Jul-20 13:00N 44°42' W 083°12'7 7.4 220 / 91024.5 19.0 22.1
2016-Jul-20 12:00N 44°48' W 083°06'6 6.0 220 / 131024.5 19.4 21.8
2016-Jul-20 11:00N 44°54' W 083°06'1212.0 210 / 171024.2 20.5 22.0
2016-Jul-20 10:00N 45°06' W 083°06'7 7.3 230 / 191023.8 18.2 22.2
2016-Jul-20 09:00N 45°12' W 083°12'1010.4 210 / 151023.5 17.0 22.2
2016-Jul-20 08:00N 45°18' W 083°24'0 0.0 230 / 131024.2 16.0 22.2
2016-Jul-20 07:00N 45°18' W 083°24'0 0.0 220 / 101023.5 16.2 23.0
2016-Jul-20 06:00N 45°18' W 083°24'0 0.0 210 / 91023.5 17.4 23.1
2016-Jul-20 05:00N 45°18' W 083°24'0 0.0 220 / 91023.5 17.1 23.1
2016-Jul-20 04:00N 45°18' W 083°24'0 0.0 220 / 81023.5 17.5 23.0
2016-Jul-20 03:00N 45°18' W 083°24'0 0.0 210 / 61023.5 17.6 23.1
2016-Jul-20 02:00N 45°18' W 083°24'0 0.0 200 / 61023.5 18.4 23.1
2016-Jul-20 01:00N 45°18' W 083°24'0 0.0 180 / 41023.5 19.4 23.0
2016-Jul-20 00:00N 45°18' W 083°24'0 0.0 150 / 41023.5 21.3 22.8
2016-Jul-19 23:00N 45°18' W 083°24'0 0.0 1023.8 19.4 22.8
2016-Jul-19 22:00N 45°18' W 083°24'0 0.0 360 / 71023.8 19.4 22.6
2016-Jul-19 21:00N 45°18' W 083°24'1010.4 1024.2 19.9 22.5
2016-Jul-19 20:00N 45°12' W 083°12'1312.7 020 / 101024.8 18.3 22.4
2016-Jul-19 19:00N 45°00' W 083°06'7 7.4 030 / 101025.5 18.1 21.9
2016-Jul-19 18:00N 44°54' W 083°00'1312.7 030 / 91025.2 18.1 21.8
2016-Jul-19 17:00N 44°42' W 082°54'44 8.8 020 / 121025.2 18.3 21.7
2016-Jul-19 12:00N 44°00' W 082°36'7 7.4 360 / 151024.2 18.1 23.6
2016-Jul-19 11:00N 43°54' W 082°30'1212.0 310 / 111023.8 18.7 23.7
2016-Jul-19 10:00N 43°42' W 082°30'1212.0 300 / 71023.2 18.2 23.4
2016-Jul-19 09:00N 43°30' W 082°30'6 6.0 320 / 41022.8 18.7 23.9
2016-Jul-19 08:00N 43°24' W 082°30'1312.8 340 / 81022.8 19.2 24.2
2016-Jul-19 07:00N 43°12' W 082°24'6 6.0 020 / 71022.5 20.3 23.8
2016-Jul-19 06:00N 43°06' W 082°24'1212.0 110 / 71021.8 20.4 24.5
2016-Jul-19 05:00N 42°54' W 082°24'4 2.2 050 / 41022.1 20.2 24.5
2016-Jul-19 03:00N 42°54' W 082°30'0 0.0 040 / 121021.8 23.3 24.9
2016-Jul-19 02:00N 42°54' W 082°30'6 6.0 040 / 151021.1 21.3 24.9
2016-Jul-19 01:00N 42°48' W 082°30'6 6.0 040 / 161020.1 21.3 24.7
2016-Jul-19 00:00N 42°42' W 082°30'0 0.0 340 / 41019.4 27.6 25.2
2016-Jul-18 23:00N 42°42' W 082°30'0 0.0 320 / 61019.1 28.5 25.3
2016-Jul-18 22:00N 42°42' W 082°30'0 0.0 300 / 91019.1 28.1 25.3
2016-Jul-18 21:00N 42°42' W 082°30'6 6.0 320 / 91019.1 28.0 24.9
2016-Jul-18 20:00N 42°36' W 082°30'7 7.5 320 / 101019.4 27.0 24.7
2016-Jul-18 19:00N 42°30' W 082°36'1110.7 330 / 101019.6 26.9 24.9
2016-Jul-18 18:00N 42°24' W 082°48'4 4.4 320 / 141019.6 27.8 26.1
2016-Jul-18 17:00N 42°24' W 082°54'7 7.5 320 / 91019.9 27.7 26.8
2016-Jul-18 16:00N 42°18' W 083°00'4 4.4 310 / 71019.9 26.5 26.8
2016-Jul-18 15:00N 42°18' W 083°06'   270 / 81019.9 24.9 27.5
Track history (hours):
 
Tides and Currents Weather Stations Pressure Air Temp Water Temp Dewpoint Dewpoint Depression Visibility Wind Speed Wind Dir Waves Ship Positions

Dorothy Ann

Owner: THE INTERLAKE STEAMSHIP COMPANY, Middleburg Heights, OH. More information available from US FCC via Universal Licensing System and Coast Guard Vessel Documentation Center.

Last reported at 2016-Jul-28 15:00 UTC. Time now 2016-Jul-28 16:29 UTC.
Position N 41°42' W 083°30'.

Length 215 m; draft 5.9 m.

Type: Cargo ship. MMSI: 367409260.

Wind from 040 at 8 knots

Barometer 1013.4 mb
Air temperature 25.2 ° C
Water temperature 31.0 ° C

Date/timePositionNaut miles runAvg speedWind from/ knotsBaromVisibWave heightAir tempDewpointWater temp
2016-Jul-28 15:00N 41°42' W 083°30'0 0.0 040 / 81013.4 25.2 31.0
2016-Jul-28 14:00N 41°42' W 083°30'1110.8 050 / 101013.7 25.0 30.9
2016-Jul-28 13:00N 41°48' W 083°18'1110.8 040 / 101014.0 24.4 29.7
2016-Jul-28 12:00N 41°54' W 083°06'6 6.0 040 / 101013.7 23.9 29.6
2016-Jul-28 11:00N 42°00' W 083°06'1212.0 050 / 61013.7 22.1 28.8
2016-Jul-28 10:00N 42°12' W 083°06'6 6.0 030 / 61013.5 22.3 28.9
2016-Jul-28 09:00N 42°18' W 083°06'0 0.0 060 / 41013.5 22.6 32.1
2016-Jul-28 08:00N 42°18' W 083°06'0 0.0 040 / 51013.1 23.0 32.6
2016-Jul-28 07:00N 42°18' W 083°06'0 0.0 340 / 51013.5 23.9 32.3
2016-Jul-28 06:00N 42°18' W 083°06'6 6.0 340 / 41013.8 25.5 32.3
2016-Jul-28 05:00N 42°12' W 083°06'6 6.0 060 / 41014.2 24.5 29.0
2016-Jul-28 04:00N 42°06' W 083°06'6 6.0 1014.2 25.6 28.6
2016-Jul-28 03:00N 42°00' W 083°06'7 7.5 020 / 91014.7 26.8 29.2
2016-Jul-28 02:00N 41°54' W 083°00'9 8.9 190 / 81013.7 27.3 29.3
2016-Jul-28 01:00N 41°54' W 082°48'9 8.9 170 / 71013.4 27.5 29.8
2016-Jul-28 00:00N 41°54' W 082°36'2210.8 180 / 81014.0 27.6 29.9
2016-Jul-27 22:00N 41°42' W 082°12'1110.8 340 / 21014.7 27.6 29.0
2016-Jul-27 21:00N 41°36' W 082°00'9 9.0 350 / 91015.1 27.8 29.1
2016-Jul-27 20:00N 41°36' W 081°48'7 7.5 330 / 111015.4 27.6 29.4
2016-Jul-27 19:00N 41°30' W 081°42'0 0.0 330 / 81016.1 26.2 30.4
2016-Jul-27 18:00N 41°30' W 081°42'0 0.0 010 / 71016.4 27.7 29.6
2016-Jul-27 17:00N 41°30' W 081°42'0 0.0 330 / 61016.4 28.5 31.0
2016-Jul-27 16:00N 41°30' W 081°42'0 0.0 340 / 81017.1 27.2 30.8
2016-Jul-27 15:00N 41°30' W 081°42'0 0.0 320 / 71017.1 26.5 30.9
2016-Jul-27 14:00N 41°30' W 081°42'0 0.0 1017.4 28.2 30.9
2016-Jul-27 13:00N 41°30' W 081°42'0 0.0 140 / 31017.4 26.1 30.8
2016-Jul-27 12:00N 41°30' W 081°42'0 0.0 160 / 41017.4 22.4 30.8
2016-Jul-27 11:00N 41°30' W 081°42'0 0.0 160 / 61017.1 20.5 30.8
2016-Jul-27 10:00N 41°30' W 081°42'0 0.0 160 / 51016.4 20.0 30.7
2016-Jul-27 09:00N 41°30' W 081°42'0 0.0 180 / 51016.4 19.9 30.8
2016-Jul-27 08:00N 41°30' W 081°42'0 0.0 160 / 71016.4 20.8 30.8
2016-Jul-27 07:00N 41°30' W 081°42'0 0.0 180 / 41016.4 21.0 30.8
2016-Jul-27 06:00N 41°30' W 081°42'0 0.0 180 / 31016.4 21.8 30.7
2016-Jul-27 05:00N 41°30' W 081°42'0 0.0 160 / 21016.8 22.7 30.8
2016-Jul-27 04:00N 41°30' W 081°42'0 0.0 120 / 21016.4 23.7 30.6
2016-Jul-27 03:00N 41°30' W 081°42'0 0.0 100 / 11016.8 24.7 30.7
2016-Jul-27 02:00N 41°30' W 081°42'0 0.0 040 / 11016.8 25.2 30.6
2016-Jul-27 01:00N 41°30' W 081°42'0 0.0 010 / 31016.8 28.2 30.7
2016-Jul-27 00:00N 41°30' W 081°42'0 0.0 030 / 71016.8 26.7 30.3
2016-Jul-26 23:00N 41°30' W 081°42'0 0.0 040 / 61016.8 27.0 30.0
2016-Jul-26 22:00N 41°30' W 081°42'0 0.0 020 / 91016.8 26.4 29.8
2016-Jul-26 21:00N 41°30' W 081°42'0 0.0 360 / 61017.1 26.5 30.3
2016-Jul-26 20:00N 41°30' W 081°42'0 0.0 350 / 61017.1 25.8 29.6
2016-Jul-26 19:00N 41°30' W 081°42'0 0.0 310 / 61018.1 25.2 29.7
2016-Jul-26 18:00N 41°30' W 081°42'0 0.0 330 / 71018.5 24.8 30.1
2016-Jul-26 17:00N 41°30' W 081°42'0 0.0 020 / 81018.8 23.3 29.7
2016-Jul-26 16:00N 41°30' W 081°42'0 0.0 030 / 81018.8 23.3 29.5
2016-Jul-26 15:00N 41°30' W 081°42'0 0.0 040 / 71018.5 23.7 29.5
2016-Jul-26 14:00N 41°30' W 081°42'0 0.0 050 / 91018.5 23.4 29.5
2016-Jul-26 13:00N 41°30' W 081°42'0 0.0 040 / 121018.5 23.5 29.5
2016-Jul-26 12:00N 41°30' W 081°42'0 0.0 050 / 71018.1 25.0 29.6
2016-Jul-26 11:00N 41°30' W 081°42'0 0.0 080 / 41018.1 24.7 29.3
2016-Jul-26 10:00N 41°30' W 081°42'0 0.0 040 / 81017.1 23.8 28.9
2016-Jul-26 09:00N 41°30' W 081°42'0 0.0 010 / 91016.1 23.9 29.1
2016-Jul-26 08:00N 41°30' W 081°42'0 0.0 340 / 31016.1 25.5 29.0
2016-Jul-26 07:00N 41°30' W 081°42'0 0.0 340 / 31015.4 28.1 29.0
2016-Jul-26 06:00N 41°30' W 081°42'0 0.0 300 / 51015.4 26.3 29.4
2016-Jul-26 05:00N 41°30' W 081°42'0 0.0 270 / 61015.4 27.1 29.4
2016-Jul-26 04:00N 41°30' W 081°42'0 0.0 280 / 61015.1 30.4 29.3
2016-Jul-26 03:00N 41°30' W 081°42'0 0.0 300 / 61014.7 28.8 29.1
2016-Jul-26 02:00N 41°30' W 081°42'0 0.0 290 / 51014.7 28.6 29.2
2016-Jul-26 01:00N 41°30' W 081°42'0 0.0 250 / 41014.4 29.0 29.4
2016-Jul-26 00:00N 41°30' W 081°42'0 0.0 240 / 51013.7 29.6 29.6
2016-Jul-25 23:00N 41°30' W 081°42'0 0.0 340 / 31013.7 29.9 29.6
2016-Jul-25 22:00N 41°30' W 081°42'0 0.0 310 / 61013.4 29.3 31.0
2016-Jul-25 21:00N 41°30' W 081°42'0 0.0 290 / 171013.7 26.3 29.7
2016-Jul-25 20:00N 41°30' W 081°42'0 0.0 310 / 141013.7 27.2 29.9
2016-Jul-25 19:00N 41°30' W 081°42'0 0.0 300 / 111014.4 27.1 29.7
2016-Jul-25 18:00N 41°30' W 081°42'0 0.0 300 / 171014.7 26.4 29.4
2016-Jul-25 17:00N 41°30' W 081°42'0 0.0 290 / 91015.1 27.1 29.6
2016-Jul-25 16:00N 41°30' W 081°42'0 0.0 290 / 131015.1 26.3 29.5
2016-Jul-25 15:00N 41°30' W 081°42'0 0.0 280 / 211014.7 26.4 29.4
2016-Jul-25 14:00N 41°30' W 081°42'0 0.0 250 / 81014.0 28.4 31.7
2016-Jul-25 13:00N 41°30' W 081°42'0 0.0 270 / 61014.4 27.7 28.8
2016-Jul-25 12:00N 41°30' W 081°42'0 0.0 250 / 91014.0 28.0 28.2
2016-Jul-25 11:00N 41°30' W 081°42'0 0.0 230 / 71013.4 27.5 28.1
2016-Jul-25 10:00N 41°30' W 081°42'0 0.0 240 / 111013.7 28.2 28.3
2016-Jul-25 09:00N 41°30' W 081°42'0 0.0 240 / 141013.7 27.5 28.5
2016-Jul-25 08:00N 41°30' W 081°42'0 0.0 220 / 101013.7 27.7 29.3
2016-Jul-25 07:00N 41°30' W 081°42'69 6.9 180 / 51013.7 26.8 32.2
2016-Jul-24 21:00N 42°00' W 083°06'1212.0 200 / 141013.7 24.9 28.4
2016-Jul-24 20:00N 42°12' W 083°06'7 7.5 200 / 71014.2 25.0 28.1
2016-Jul-24 19:00N 42°18' W 083°00'1110.7 260 / 141014.5 24.7 27.8
2016-Jul-24 18:00N 42°24' W 082°48'7 7.5 260 / 151014.5 25.7 27.8
2016-Jul-24 17:00N 42°30' W 082°42'1110.7 170 / 71014.5 24.4 25.5
2016-Jul-24 16:00N 42°36' W 082°30'1212.0 130 / 81015.0 21.6 25.7
2016-Jul-24 15:00N 42°48' W 082°30'1312.8 170 / 111015.0 25.2 25.5
2016-Jul-24 14:00N 43°00' W 082°24'6 6.0 140 / 91015.4 24.4 25.3
2016-Jul-24 13:00N 43°06' W 082°24'1212.0 170 / 121015.4 22.5 25.9
2016-Jul-24 12:00N 43°18' W 082°24'6 6.0 150 / 151014.3 22.5 25.9
2016-Jul-24 11:00N 43°24' W 082°24'1312.8 180 / 141015.0 22.9 25.8
2016-Jul-24 10:00N 43°36' W 082°30'6 6.0 160 / 141015.0 23.1 25.2
2016-Jul-24 09:00N 43°42' W 082°30'1212.0 170 / 131015.4 23.0 25.1
2016-Jul-24 08:00N 43°54' W 082°30'7 7.4 170 / 121015.4 22.5 25.3
2016-Jul-24 07:00N 44°00' W 082°36'28 9.4 160 / 121015.7 22.7 25.2
2016-Jul-24 04:00N 44°18' W 083°06'7 7.4 140 / 131015.4 22.7 24.3
2016-Jul-24 03:00N 44°24' W 083°12'6 6.0 170 / 111016.0 22.3 24.3
2016-Jul-24 02:00N 44°30' W 083°12'1212.0 110 / 91015.4 22.9 23.1
2016-Jul-24 01:00N 44°42' W 083°12'7 7.4 230 / 61015.7 22.9 23.6
2016-Jul-24 00:00N 44°48' W 083°06'1212.0 210 / 141015.7 23.9 23.6
2016-Jul-23 23:00N 45°00' W 083°06'6 6.0 130 / 81015.0 21.8 23.8
2016-Jul-23 22:00N 45°06' W 083°06'1010.4 080 / 81015.4 23.6 23.7
2016-Jul-23 21:00N 45°12' W 083°18'1312.7 030 / 121015.7 25.0 23.4
2016-Jul-23 20:00N 45°24' W 083°24'8 8.4 020 / 71016.0 22.4 23.4
2016-Jul-23 19:00N 45°24' W 083°36'8 8.4 340 / 61016.7 22.7 23.7
2016-Jul-23 18:00N 45°24' W 083°48'0 0.0 350 / 41016.4 23.3 23.7
2016-Jul-23 17:00N 45°24' W 083°48'0 0.0 360 / 41016.0 22.9 23.7
2016-Jul-23 16:00N 45°24' W 083°48'0 0.0 330 / 81016.7 22.9 23.5
2016-Jul-23 15:00N 45°24' W 083°48'0 0.0 330 / 91016.4 21.8 23.6
2016-Jul-23 14:00N 45°24' W 083°48'0 0.0 330 / 111015.7 22.4 23.5
2016-Jul-23 13:00N 45°24' W 083°48'0 0.0 320 / 101015.7 23.5 23.3
2016-Jul-23 12:00N 45°24' W 083°48'6 6.0 300 / 81015.4 23.2 23.2
2016-Jul-23 11:00N 45°30' W 083°48'7 7.3 270 / 121014.7 20.9 23.2
2016-Jul-23 10:00N 45°36' W 083°54'7 7.3 260 / 141013.7 20.0 22.5
2016-Jul-23 09:00N 45°42' W 084°00'1514.6 280 / 131014.0 19.8 22.0
2016-Jul-23 08:00N 45°54' W 084°12'3 7.1 290 / 141014.3 19.3 20.2
2016-Jul-23 07:33N 45°57' W 084°14'4 7.7
2016-Jul-23 07:00N 46°00' W 084°18'0 0.0 310 / 61014.0 19.3 15.2
2016-Jul-23 06:00N 46°00' W 084°18'0 0.0 310 / 61013.7 19.8 15.7
2016-Jul-23 05:00N 46°00' W 084°18'1 1.7 280 / 41013.7 20.1 15.7
2016-Jul-23 04:07N 45°59' W 084°17'112.8
2016-Jul-23 04:00N 46°00' W 084°18'1 3.4 300 / 41013.3 20.7 15.5
2016-Jul-23 03:33N 45°59' W 084°17'1 2.6
2016-Jul-23 03:00N 46°00' W 084°18'1 3.4 270 / 71013.7 21.5 16.2
2016-Jul-23 02:33N 45°59' W 084°17'1 2.7
2016-Jul-23 02:00N 46°00' W 084°18'1 3.4 280 / 51013.7 22.2 16.2
2016-Jul-23 01:33N 45°59' W 084°17'1 2.6
2016-Jul-23 01:00N 46°00' W 084°18'0 0.0 280 / 101013.3 24.3 16.6
2016-Jul-23 00:00N 46°00' W 084°18'0 0.0 330 / 121013.0 25.4 16.7
2016-Jul-22 23:00N 46°00' W 084°18'0 0.0 260 / 131012.3 26.4 16.9
2016-Jul-22 22:00N 46°00' W 084°18'0 0.0 280 / 151012.3 27.9 16.3
2016-Jul-22 21:00N 46°00' W 084°18'7 7.3 260 / 161012.3 27.7 17.7
2016-Jul-22 20:00N 45°54' W 084°12'2110.3 260 / 241012.3 23.6 21.1
2016-Jul-22 18:00N 45°42' W 083°48'7 7.3 260 / 151013.3 24.7 22.5
2016-Jul-22 17:00N 45°36' W 083°42'1010.3 310 / 141013.7 22.5 22.7
2016-Jul-22 16:00N 45°30' W 083°30'7 7.3 310 / 161013.7 22.4 22.6
2016-Jul-22 15:00N 45°24' W 083°24'1514.7 300 / 171012.7 22.5 22.6
2016-Jul-22 14:00N 45°12' W 083°12'7 7.3 300 / 201012.3 22.7 22.8
2016-Jul-22 13:00N 45°06' W 083°06'6 6.0 300 / 161012.3 22.3 22.7
2016-Jul-22 12:00N 45°00' W 083°06'2010.0 280 / 151012.0 21.2 22.6
2016-Jul-22 10:00N 44°42' W 082°54'1312.7 260 / 131011.6 21.6 22.4
2016-Jul-22 09:00N 44°30' W 082°48'6 6.0 250 / 121011.6 20.6 22.6
2016-Jul-22 08:00N 44°24' W 082°48'1312.7 250 / 201011.6 21.5 22.9
2016-Jul-22 07:00N 44°12' W 082°42'7 7.4 250 / 201011.6 22.4 23.0
2016-Jul-22 06:00N 44°06' W 082°36'1212.0 270 / 151012.3 23.2 24.5
2016-Jul-22 05:00N 43°54' W 082°36'7 7.4 260 / 161012.3 23.6 24.1
2016-Jul-22 04:00N 43°48' W 082°30'1212.0 260 / 91013.0 23.6 23.7
2016-Jul-22 03:00N 43°36' W 082°30'1212.0 260 / 91013.3 23.6 24.2
2016-Jul-22 02:00N 43°24' W 082°30'7 7.4 230 / 121013.3 24.7 24.2
2016-Jul-22 01:00N 43°18' W 082°24'1212.0 240 / 141014.3 25.7 24.7
2016-Jul-22 00:00N 43°06' W 082°24'6 6.0 250 / 171015.0 27.1 25.2
2016-Jul-21 23:00N 43°00' W 082°24'7 7.4 230 / 141014.0 28.9 25.0
2016-Jul-21 22:00N 42°54' W 082°30'6 6.0 170 / 91014.7 29.1 24.9
2016-Jul-21 21:00N 42°48' W 082°30'1212.0 200 / 121015.7 33.2 24.8
2016-Jul-21 20:00N 42°36' W 082°30'7 7.5 220 / 101017.1 30.3 25.1
2016-Jul-21 19:00N 42°30' W 082°36'9 8.8 210 / 131017.5 28.5 25.2
2016-Jul-21 18:00N 42°30' W 082°48'7 7.5 230 / 171018.6 29.0 26.7
2016-Jul-21 17:00N 42°24' W 082°54'1110.7 230 / 171018.9 31.8 26.9
2016-Jul-21 16:00N 42°18' W 083°06'0 0.0 230 / 161019.6 30.4 27.0
2016-Jul-21 15:00N 42°18' W 083°06'0 0.0 250 / 101019.6 28.9 27.5
2016-Jul-21 14:00N 42°18' W 083°06'0 0.0 250 / 111020.3 27.2 27.6
2016-Jul-21 13:00N 42°18' W 083°06'0 0.0 220 / 41020.6 25.4 30.5
2016-Jul-21 12:00N 42°18' W 083°06'0 0.0 230 / 71020.6 23.8 31.0
2016-Jul-21 11:00N 42°18' W 083°06'0 0.0 210 / 41020.9 23.2 30.4
2016-Jul-21 10:00N 42°18' W 083°06'0 0.0 240 / 21021.3 23.9 30.5
2016-Jul-21 09:00N 42°18' W 083°06'4 4.4 180 / 51020.9 23.3 29.1
2016-Jul-21 08:00N 42°18' W 083°00'1110.7 210 / 71020.9 22.8 27.0
2016-Jul-21 07:00N 42°24' W 082°48'7 7.5 180 / 121021.3 23.1 26.6
2016-Jul-21 06:00N 42°30' W 082°42'1110.7 170 / 151020.9 23.0 24.9
2016-Jul-21 05:00N 42°36' W 082°30'6 6.0 190 / 71021.8 21.8 24.8
2016-Jul-21 04:00N 42°42' W 082°30'1212.0 200 / 71022.1 20.5 25.0
2016-Jul-21 03:00N 42°54' W 082°30'1312.8 190 / 91022.1 21.9 25.1
2016-Jul-21 02:00N 43°06' W 082°24'6 6.0 190 / 141021.8 24.2 24.8
2016-Jul-21 01:00N 43°12' W 082°24'6 6.0 220 / 111021.5 25.0 24.6
2016-Jul-21 00:00N 43°18' W 082°24'1312.8 160 / 151021.5 24.9 24.5
2016-Jul-20 23:00N 43°30' W 082°30'6 6.0 170 / 151021.5 23.7 24.4
2016-Jul-20 22:00N 43°36' W 082°30'1212.0 170 / 171021.8 23.0 24.1
2016-Jul-20 21:00N 43°48' W 082°30'6 6.0 160 / 151022.1 22.0 24.2
2016-Jul-20 20:00N 43°54' W 082°30'7 7.4 150 / 131022.8 21.7 23.9
2016-Jul-20 19:00N 44°00' W 082°36'1110.5 150 / 151022.8 21.0 24.0
2016-Jul-20 18:00N 44°06' W 082°48'7 7.4 150 / 91023.5 21.3 23.4
2016-Jul-20 17:00N 44°12' W 082°54'1010.5 220 / 111023.8 20.7 23.4
2016-Jul-20 16:00N 44°18' W 083°06'7 7.4 220 / 131023.8 20.2 22.6
2016-Jul-20 15:00N 44°24' W 083°12'6 6.0 220 / 161023.8 22.6 22.3
2016-Jul-20 14:00N 44°30' W 083°12'1212.0 200 / 161023.8 19.5 22.2
2016-Jul-20 13:00N 44°42' W 083°12'7 7.4 220 / 91024.5 19.0 22.1
2016-Jul-20 12:00N 44°48' W 083°06'6 6.0 220 / 131024.5 19.4 21.8
2016-Jul-20 11:00N 44°54' W 083°06'1212.0 210 / 171024.2 20.5 22.0
2016-Jul-20 10:00N 45°06' W 083°06'7 7.3 230 / 191023.8 18.2 22.2
2016-Jul-20 09:00N 45°12' W 083°12'1010.4 210 / 151023.5 17.0 22.2
2016-Jul-20 08:00N 45°18' W 083°24'0 0.0 230 / 131024.2 16.0 22.2
2016-Jul-20 07:00N 45°18' W 083°24'0 0.0 220 / 101023.5 16.2 23.0
2016-Jul-20 06:00N 45°18' W 083°24'0 0.0 210 / 91023.5 17.4 23.1
2016-Jul-20 05:00N 45°18' W 083°24'0 0.0 220 / 91023.5 17.1 23.1
2016-Jul-20 04:00N 45°18' W 083°24'0 0.0 220 / 81023.5 17.5 23.0
2016-Jul-20 03:00N 45°18' W 083°24'0 0.0 210 / 61023.5 17.6 23.1
2016-Jul-20 02:00N 45°18' W 083°24'0 0.0 200 / 61023.5 18.4 23.1
2016-Jul-20 01:00N 45°18' W 083°24'0 0.0 180 / 41023.5 19.4 23.0
2016-Jul-20 00:00N 45°18' W 083°24'0 0.0 150 / 41023.5 21.3 22.8
2016-Jul-19 23:00N 45°18' W 083°24'0 0.0 1023.8 19.4 22.8
2016-Jul-19 22:00N 45°18' W 083°24'0 0.0 360 / 71023.8 19.4 22.6
2016-Jul-19 21:00N 45°18' W 083°24'1010.4 1024.2 19.9 22.5
2016-Jul-19 20:00N 45°12' W 083°12'1312.7 020 / 101024.8 18.3 22.4
2016-Jul-19 19:00N 45°00' W 083°06'7 7.4 030 / 101025.5 18.1 21.9
2016-Jul-19 18:00N 44°54' W 083°00'1312.7 030 / 91025.2 18.1 21.8
2016-Jul-19 17:00N 44°42' W 082°54'44 8.8 020 / 121025.2 18.3 21.7
2016-Jul-19 12:00N 44°00' W 082°36'7 7.4 360 / 151024.2 18.1 23.6
2016-Jul-19 11:00N 43°54' W 082°30'1212.0 310 / 111023.8 18.7 23.7
2016-Jul-19 10:00N 43°42' W 082°30'1212.0 300 / 71023.2 18.2 23.4
2016-Jul-19 09:00N 43°30' W 082°30'6 6.0 320 / 41022.8 18.7 23.9
2016-Jul-19 08:00N 43°24' W 082°30'1312.8 340 / 81022.8 19.2 24.2
2016-Jul-19 07:00N 43°12' W 082°24'6 6.0 020 / 71022.5 20.3 23.8
2016-Jul-19 06:00N 43°06' W 082°24'1212.0 110 / 71021.8 20.4 24.5
2016-Jul-19 05:00N 42°54' W 082°24'4 2.2 050 / 41022.1 20.2 24.5
2016-Jul-19 03:00N 42°54' W 082°30'0 0.0 040 / 121021.8 23.3 24.9
2016-Jul-19 02:00N 42°54' W 082°30'6 6.0 040 / 151021.1 21.3 24.9
2016-Jul-19 01:00N 42°48' W 082°30'6 6.0 040 / 161020.1 21.3 24.7
2016-Jul-19 00:00N 42°42' W 082°30'0 0.0 340 / 41019.4 27.6 25.2
2016-Jul-18 23:00N 42°42' W 082°30'0 0.0 320 / 61019.1 28.5 25.3
2016-Jul-18 22:00N 42°42' W 082°30'0 0.0 300 / 91019.1 28.1 25.3
2016-Jul-18 21:00N 42°42' W 082°30'6 6.0 320 / 91019.1 28.0 24.9
2016-Jul-18 20:00N 42°36' W 082°30'7 7.5 320 / 101019.4 27.0 24.7
2016-Jul-18 19:00N 42°30' W 082°36'1110.7 330 / 101019.6 26.9 24.9
2016-Jul-18 18:00N 42°24' W 082°48'4 4.4 320 / 141019.6 27.8 26.1
2016-Jul-18 17:00N 42°24' W 082°54'7 7.5 320 / 91019.9 27.7 26.8
2016-Jul-18 16:00N 42°18' W 083°00'4 4.4 310 / 71019.9 26.5 26.8
2016-Jul-18 15:00N 42°18' W 083°06'   270 / 81019.9 24.9 27.5

Dump ship's entire track history